sensor_id;sensor_type;location;lat;lon;timestamp;pressure;altitude;pressure_sealevel;temperature;humidity
23899;BME280;20544;50.018;20.010;2024-01-30T00:01:53;100641.34;;;-1.67;100.00
23899;BME280;20544;50.018;20.010;2024-01-30T00:05:11;100633.92;;;-1.77;100.00
23899;BME280;20544;50.018;20.010;2024-01-30T00:08:28;100635.05;;;-1.85;100.00
23899;BME280;20544;50.018;20.010;2024-01-30T00:11:46;100628.34;;;-1.90;100.00
23899;BME280;20544;50.018;20.010;2024-01-30T00:15:05;100631.84;;;-1.91;100.00
23899;BME280;20544;50.018;20.010;2024-01-30T00:18:23;100629.41;;;-1.96;100.00
23899;BME280;20544;50.018;20.010;2024-01-30T00:21:41;100632.07;;;-1.98;100.00
23899;BME280;20544;50.018;20.010;2024-01-30T00:24:59;100632.13;;;-1.99;100.00
23899;BME280;20544;50.018;20.010;2024-01-30T00:28:17;100630.27;;;-1.96;100.00
23899;BME280;20544;50.018;20.010;2024-01-30T00:31:34;100634.51;;;-1.93;100.00
23899;BME280;20544;50.018;20.010;2024-01-30T00:34:52;100636.98;;;-1.90;100.00
23899;BME280;20544;50.018;20.010;2024-01-30T00:38:10;100632.07;;;-1.98;100.00
23899;BME280;20544;50.018;20.010;2024-01-30T00:41:27;100620.86;;;-2.00;100.00
23899;BME280;20544;50.018;20.010;2024-01-30T00:44:45;100632.07;;;-1.98;100.00
23899;BME280;20544;50.018;20.010;2024-01-30T00:48:03;100630.49;;;-2.02;100.00
23899;BME280;20544;50.018;20.010;2024-01-30T00:51:21;100632.36;;;-2.05;100.00
23899;BME280;20544;50.018;20.010;2024-01-30T00:54:40;100619.22;;;-2.02;100.00
23899;BME280;20544;50.018;20.010;2024-01-30T00:57:57;100624.62;;;-2.07;100.00
23899;BME280;20544;50.018;20.010;2024-01-30T01:01:15;100616.01;;;-2.09;100.00
23899;BME280;20544;50.018;20.010;2024-01-30T01:04:33;100626.06;;;-2.00;100.00
23899;BME280;20544;50.018;20.010;2024-01-30T01:07:53;100618.09;;;-1.95;100.00
23899;BME280;20544;50.018;20.010;2024-01-30T01:11:11;100616.84;;;-2.08;100.00
23899;BME280;20544;50.018;20.010;2024-01-30T01:14:28;100603.97;;;-2.12;100.00
23899;BME280;20544;50.018;20.010;2024-01-30T01:17:46;100617.88;;;-2.13;100.00
23899;BME280;20544;50.018;20.010;2024-01-30T01:21:04;100616.97;;;-2.12;100.00
23899;BME280;20544;50.018;20.010;2024-01-30T01:24:21;100622.98;;;-2.09;100.00
23899;BME280;20544;50.018;20.010;2024-01-30T01:27:39;100620.47;;;-2.13;100.00
23899;BME280;20544;50.018;20.010;2024-01-30T01:30:59;100616.97;;;-2.12;100.00
23899;BME280;20544;50.018;20.010;2024-01-30T01:34:16;100612.95;;;-2.20;100.00
23899;BME280;20544;50.018;20.010;2024-01-30T01:37:34;100611.47;;;-2.28;100.00
23899;BME280;20544;50.018;20.010;2024-01-30T01:40:51;100590.73;;;-2.29;100.00
23899;BME280;20544;50.018;20.010;2024-01-30T01:44:09;100595.77;;;-2.24;100.00
23899;BME280;20544;50.018;20.010;2024-01-30T01:47:26;100600.02;;;-2.22;100.00
23899;BME280;20544;50.018;20.010;2024-01-30T01:50:44;100600.98;;;-2.24;100.00
23899;BME280;20544;50.018;20.010;2024-01-30T01:54:04;100603.73;;;-2.29;100.00
23899;BME280;20544;50.018;20.010;2024-01-30T01:57:22;100599.37;;;-2.29;100.00
23899;BME280;20544;50.018;20.010;2024-01-30T02:00:40;100598.53;;;-2.29;100.00
23899;BME280;20544;50.018;20.010;2024-01-30T02:03:58;100604.78;;;-2.35;100.00
23899;BME280;20544;50.018;20.010;2024-01-30T02:07:15;100596.25;;;-2.38;100.00
23899;BME280;20544;50.018;20.010;2024-01-30T02:10:33;100596.95;;;-2.33;100.00
23899;BME280;20544;50.018;20.010;2024-01-30T02:13:52;100595.94;;;-2.29;100.00
23899;BME280;20544;50.018;20.010;2024-01-30T02:17:09;100591.85;;;-2.36;100.00
23899;BME280;20544;50.018;20.010;2024-01-30T02:20:30;100585.97;;;-2.41;100.00
23899;BME280;20544;50.018;20.010;2024-01-30T02:23:48;100581.45;;;-2.36;100.00
23899;BME280;20544;50.018;20.010;2024-01-30T02:27:07;100583.31;;;-2.40;100.00
23899;BME280;20544;50.018;20.010;2024-01-30T02:30:24;100580.34;;;-2.29;100.00
23899;BME280;20544;50.018;20.010;2024-01-30T02:33:42;100579.02;;;-2.17;100.00
23899;BME280;20544;50.018;20.010;2024-01-30T02:37:00;100588.69;;;-2.21;100.00
23899;BME280;20544;50.018;20.010;2024-01-30T02:40:18;100577.67;;;-2.28;100.00
23899;BME280;20544;50.018;20.010;2024-01-30T02:43:36;100574.33;;;-2.31;100.00
23899;BME280;20544;50.018;20.010;2024-01-30T02:46:57;100581.45;;;-2.36;100.00
23899;BME280;20544;50.018;20.010;2024-01-30T02:50:15;100571.18;;;-2.39;100.00
23899;BME280;20544;50.018;20.010;2024-01-30T02:53:33;100562.67;;;-2.45;100.00
23899;BME280;20544;50.018;20.010;2024-01-30T02:56:51;100565.39;;;-2.48;100.00
23899;BME280;20544;50.018;20.010;2024-01-30T03:00:10;100566.20;;;-2.46;100.00
23899;BME280;20544;50.018;20.010;2024-01-30T03:03:30;100554.32;;;-2.53;100.00
23899;BME280;20544;50.018;20.010;2024-01-30T03:06:48;100553.64;;;-2.58;100.00
23899;BME280;20544;50.018;20.010;2024-01-30T03:10:08;100558.87;;;-2.60;100.00
23899;BME280;20544;50.018;20.010;2024-01-30T03:13:26;100557.23;;;-2.62;100.00
23899;BME280;20544;50.018;20.010;2024-01-30T03:16:44;100554.81;;;-2.67;100.00
23899;BME280;20544;50.018;20.010;2024-01-30T03:20:01;100560.78;;;-2.65;100.00
23899;BME280;20544;50.018;20.010;2024-01-30T03:23:20;100566.11;;;-2.68;100.00
23899;BME280;20544;50.018;20.010;2024-01-30T03:26:38;100564.28;;;-2.66;100.00
23899;BME280;20544;50.018;20.010;2024-01-30T03:29:55;100564.19;;;-2.63;100.00
23899;BME280;20544;50.018;20.010;2024-01-30T03:33:13;100573.69;;;-2.62;100.00
23899;BME280;20544;50.018;20.010;2024-01-30T03:36:31;100571.70;;;-2.55;100.00
23899;BME280;20544;50.018;20.010;2024-01-30T03:39:48;100564.59;;;-2.50;100.00
23899;BME280;20544;50.018;20.010;2024-01-30T03:43:07;100571.09;;;-2.62;100.00
23899;BME280;20544;50.018;20.010;2024-01-30T03:46:24;100566.16;;;-2.69;100.00
23899;BME280;20544;50.018;20.010;2024-01-30T03:49:42;100569.75;;;-2.73;100.00
23899;BME280;20544;50.018;20.010;2024-01-30T03:53:00;100570.61;;;-2.73;100.00
23899;BME280;20544;50.018;20.010;2024-01-30T03:56:18;100564.49;;;-2.72;100.00
23899;BME280;20544;50.018;20.010;2024-01-30T03:59:36;100572.26;;;-2.70;100.00
23899;BME280;20544;50.018;20.010;2024-01-30T04:02:54;100564.55;;;-2.73;100.00
23899;BME280;20544;50.018;20.010;2024-01-30T04:06:12;100557.77;;;-2.78;100.00
23899;BME280;20544;50.018;20.010;2024-01-30T04:09:30;100557.18;;;-2.86;100.00
23899;BME280;20544;50.018;20.010;2024-01-30T04:12:48;100557.18;;;-2.86;100.00
23899;BME280;20544;50.018;20.010;2024-01-30T04:16:07;100554.49;;;-2.83;100.00
23899;BME280;20544;50.018;20.010;2024-01-30T04:19:27;100557.92;;;-2.82;100.00
23899;BME280;20544;50.018;20.010;2024-01-30T04:22:46;100558.80;;;-2.82;100.00
23899;BME280;20544;50.018;20.010;2024-01-30T04:26:04;100554.44;;;-2.81;100.00
23899;BME280;20544;50.018;20.010;2024-01-30T04:29:22;100554.77;;;-2.90;100.00
23899;BME280;20544;50.018;20.010;2024-01-30T04:32:39;100558.13;;;-2.88;100.00
23899;BME280;20544;50.018;20.010;2024-01-30T04:35:58;100562.44;;;-2.87;100.00
23899;BME280;20544;50.018;20.010;2024-01-30T04:39:16;100560.80;;;-2.90;100.00
23899;BME280;20544;50.018;20.010;2024-01-30T04:42:33;100561.89;;;-2.97;100.00
23899;BME280;20544;50.018;20.010;2024-01-30T04:45:52;100570.23;;;-2.87;100.00
23899;BME280;20544;50.018;20.010;2024-01-30T04:49:09;100572.67;;;-2.83;100.00
23899;BME280;20544;50.018;20.010;2024-01-30T04:52:27;100571.06;;;-2.87;100.00
23899;BME280;20544;50.018;20.010;2024-01-30T04:55:45;100573.03;;;-2.94;100.00
23899;BME280;20544;50.018;20.010;2024-01-30T04:59:03;100567.69;;;-2.89;100.00
23899;BME280;20544;50.018;20.010;2024-01-30T05:02:21;100569.39;;;-2.88;100.00
23899;BME280;20544;50.018;20.010;2024-01-30T05:05:39;100572.89;;;-2.89;100.00
23899;BME280;20544;50.018;20.010;2024-01-30T05:08:56;100570.38;;;-2.92;100.00
23899;BME280;20544;50.018;20.010;2024-01-30T05:12:14;100566.08;;;-2.93;100.00
23899;BME280;20544;50.018;20.010;2024-01-30T05:15:32;100569.48;;;-2.91;100.00
23899;BME280;20544;50.018;20.010;2024-01-30T05:18:51;100571.27;;;-2.93;100.00
23899;BME280;20544;50.018;20.010;2024-01-30T05:22:10;100569.69;;;-2.97;100.00
23899;BME280;20544;50.018;20.010;2024-01-30T05:25:29;100571.66;;;-3.04;100.00
23899;BME280;20544;50.018;20.010;2024-01-30T05:28:47;100563.74;;;-3.01;100.00
23899;BME280;20544;50.018;20.010;2024-01-30T05:32:05;100566.34;;;-3.01;100.00
23899;BME280;20544;50.018;20.010;2024-01-30T05:35:23;100568.09;;;-3.01;100.00
23899;BME280;20544;50.018;20.010;2024-01-30T05:38:40;100565.45;;;-3.00;100.00
23899;BME280;20544;50.018;20.010;2024-01-30T05:41:58;100568.94;;;-3.01;100.00
23899;BME280;20544;50.018;20.010;2024-01-30T05:45:16;100567.23;;;-3.02;100.00
23899;BME280;20544;50.018;20.010;2024-01-30T05:48:34;100562.04;;;-3.02;100.00
23899;BME280;20544;50.018;20.010;2024-01-30T05:51:51;100569.75;;;-2.99;100.00
23899;BME280;20544;50.018;20.010;2024-01-30T05:55:10;100567.15;;;-2.99;100.00
23899;BME280;20544;50.018;20.010;2024-01-30T05:58:28;100568.73;;;-2.95;100.00
23899;BME280;20544;50.018;20.010;2024-01-30T06:01:49;100575.75;;;-2.97;100.00
23899;BME280;20544;50.018;20.010;2024-01-30T06:05:08;100574.19;;;-3.02;100.00
23899;BME280;20544;50.018;20.010;2024-01-30T06:08:26;100567.44;;;-3.08;100.00
23899;BME280;20544;50.018;20.010;2024-01-30T06:11:43;100559.77;;;-3.11;100.00
23899;BME280;20544;50.018;20.010;2024-01-30T06:15:01;100565.56;;;-3.03;100.00
23899;BME280;20544;50.018;20.010;2024-01-30T06:18:20;100573.30;;;-3.01;100.00
23899;BME280;20544;50.018;20.010;2024-01-30T06:21:39;100578.83;;;-2.85;100.00
23899;BME280;20544;50.018;20.010;2024-01-30T06:24:57;100572.89;;;-2.89;100.00
23899;BME280;20544;50.018;20.010;2024-01-30T06:28:15;100571.33;;;-2.95;100.00
23899;BME280;20544;50.018;20.010;2024-01-30T06:31:32;100568.73;;;-2.95;100.00
23899;BME280;20544;50.018;20.010;2024-01-30T06:34:50;100575.75;;;-2.97;100.00
23899;BME280;20544;50.018;20.010;2024-01-30T06:38:08;100576.73;;;-3.01;100.00
23899;BME280;20544;50.018;20.010;2024-01-30T06:41:26;100569.05;;;-3.04;100.00
23899;BME280;20544;50.018;20.010;2024-01-30T06:44:43;100571.33;;;-2.95;100.00
23899;BME280;20544;50.018;20.010;2024-01-30T06:48:01;100574.67;;;-2.91;100.00
23899;BME280;20544;50.018;20.010;2024-01-30T06:51:20;100571.27;;;-2.93;100.00
23899;BME280;20544;50.018;20.010;2024-01-30T06:54:37;100575.48;;;-2.89;100.00
23899;BME280;20544;50.018;20.010;2024-01-30T06:57:55;100572.14;;;-2.67;100.00
23899;BME280;20544;50.018;20.010;2024-01-30T07:01:13;100579.15;;;-2.20;100.00
23899;BME280;20544;50.018;20.010;2024-01-30T07:04:31;100580.94;;;-1.53;100.00
23899;BME280;20544;50.018;20.010;2024-01-30T07:07:51;100591.80;;;-0.78;100.00
23899;BME280;20544;50.018;20.010;2024-01-30T07:11:09;100584.40;;;-0.27;100.00
23899;BME280;20544;50.018;20.010;2024-01-30T07:14:29;100586.90;;;-0.05;100.00
23899;BME280;20544;50.018;20.010;2024-01-30T07:17:47;100581.22;;;0.04;100.00
23899;BME280;20544;50.018;20.010;2024-01-30T07:21:05;100582.14;;;0.22;100.00
23899;BME280;20544;50.018;20.010;2024-01-30T07:24:23;100584.15;;;0.53;100.00
23899;BME280;20544;50.018;20.010;2024-01-30T07:27:41;100592.55;;;0.60;100.00
23899;BME280;20544;50.018;20.010;2024-01-30T07:30:59;100594.17;;;0.62;100.00
23899;BME280;20544;50.018;20.010;2024-01-30T07:34:16;100595.25;;;0.76;100.00
23899;BME280;20544;50.018;20.010;2024-01-30T07:37:34;100600.58;;;0.92;100.00
23899;BME280;20544;50.018;20.010;2024-01-30T07:40:52;100600.89;;;1.21;100.00
23899;BME280;20544;50.018;20.010;2024-01-30T07:44:11;100596.59;;;1.37;100.00
23899;BME280;20544;50.018;20.010;2024-01-30T07:47:28;100596.98;;;1.47;100.00
23899;BME280;20544;50.018;20.010;2024-01-30T07:50:46;100594.59;;;1.42;100.00
23899;BME280;20544;50.018;20.010;2024-01-30T07:54:04;100590.91;;;1.29;100.00
23899;BME280;20544;50.018;20.010;2024-01-30T07:57:22;100593.66;;;1.08;100.00
23899;BME280;20544;50.018;20.010;2024-01-30T08:00:40;100589.44;;;1.06;100.00
23899;BME280;20544;50.018;20.010;2024-01-30T08:03:57;100585.77;;;0.92;100.00
23899;BME280;20544;50.018;20.010;2024-01-30T08:07:15;100589.13;;;1.12;100.00
23899;BME280;20544;50.018;20.010;2024-01-30T08:10:33;100592.91;;;1.24;100.00
23899;BME280;20544;50.018;20.010;2024-01-30T08:13:51;100596.89;;;1.49;100.00
23899;BME280;20544;50.018;20.010;2024-01-30T08:17:08;100599.70;;;1.61;100.00
23899;BME280;20544;50.018;20.010;2024-01-30T08:20:26;100603.29;;;1.76;100.00
23899;BME280;20544;50.018;20.010;2024-01-30T08:23:43;100602.50;;;1.92;100.00
23899;BME280;20544;50.018;20.010;2024-01-30T08:27:02;100604.61;;;2.01;100.00
23899;BME280;20544;50.018;20.010;2024-01-30T08:30:22;100603.36;;;2.40;100.00
23899;BME280;20544;50.018;20.010;2024-01-30T08:33:40;100601.39;;;2.76;100.00
23899;BME280;20544;50.018;20.010;2024-01-30T08:36:59;100598.61;;;3.10;100.00
23899;BME280;20544;50.018;20.010;2024-01-30T08:40:21;100602.73;;;3.44;100.00
23899;BME280;20544;50.018;20.010;2024-01-30T08:43:40;100609.85;;;4.00;100.00
23899;BME280;20544;50.018;20.010;2024-01-30T08:46:59;100614.66;;;4.08;100.00
23899;BME280;20544;50.018;20.010;2024-01-30T08:50:18;100614.01;;;3.75;100.00
23899;BME280;20544;50.018;20.010;2024-01-30T08:53:36;100605.54;;;3.70;100.00
23899;BME280;20544;50.018;20.010;2024-01-30T08:56:53;100607.89;;;3.75;100.00
23899;BME280;20544;50.018;20.010;2024-01-30T09:00:21;100602.66;;;3.60;100.00
23899;BME280;20544;50.018;20.010;2024-01-30T09:03:41;100594.45;;;3.36;100.00
23899;BME280;20544;50.018;20.010;2024-01-30T09:06:59;100598.11;;;3.33;100.00
23899;BME280;20544;50.018;20.010;2024-01-30T09:10:20;100604.78;;;3.53;100.00
23899;BME280;20544;50.018;20.010;2024-01-30T09:13:38;100606.20;;;3.73;100.00
23899;BME280;20544;50.018;20.010;2024-01-30T09:16:56;100603.97;;;3.82;100.00
23899;BME280;20544;50.018;20.010;2024-01-30T09:20:14;100603.31;;;3.93;100.00
23899;BME280;20544;50.018;20.010;2024-01-30T09:23:33;100605.08;;;4.07;100.00
23899;BME280;20544;50.018;20.010;2024-01-30T09:26:51;100599.89;;;4.19;100.00
23899;BME280;20544;50.018;20.010;2024-01-30T09:30:11;100595.58;;;4.18;100.00
23899;BME280;20544;50.018;20.010;2024-01-30T09:33:29;100590.48;;;4.30;100.00
23899;BME280;20544;50.018;20.010;2024-01-30T09:36:47;100585.56;;;4.11;100.00
23899;BME280;20544;50.018;20.010;2024-01-30T09:40:06;100582.38;;;4.20;100.00
23899;BME280;20544;50.018;20.010;2024-01-30T09:43:30;100580.95;;;4.29;100.00
23899;BME280;20544;50.018;20.010;2024-01-30T09:46:50;100578.00;;;4.33;100.00
23899;BME280;20544;50.018;20.010;2024-01-30T09:50:14;100577.61;;;4.40;100.00
23899;BME280;20544;50.018;20.010;2024-01-30T09:53:33;100574.95;;;4.54;100.00
23899;BME280;20544;50.018;20.010;2024-01-30T09:56:51;100566.59;;;4.75;100.00
23899;BME280;20544;50.018;20.010;2024-01-30T10:00:10;100563.73;;;4.92;100.00
23899;BME280;20544;50.018;20.010;2024-01-30T10:03:30;100567.77;;;4.83;100.00
23899;BME280;20544;50.018;20.010;2024-01-30T10:06:49;100564.26;;;4.97;100.00
23899;BME280;20544;50.018;20.010;2024-01-30T10:10:11;100559.12;;;5.09;100.00
23899;BME280;20544;50.018;20.010;2024-01-30T10:13:29;100563.97;;;5.15;100.00
23899;BME280;20544;50.018;20.010;2024-01-30T10:16:49;100557.95;;;5.26;100.00
23899;BME280;20544;50.018;20.010;2024-01-30T10:20:09;100547.34;;;5.40;100.00
23899;BME280;20544;50.018;20.010;2024-01-30T10:23:28;100550.09;;;5.39;100.00
23899;BME280;20544;50.018;20.010;2024-01-30T10:26:47;100545.34;;;5.44;100.00
23899;BME280;20544;50.018;20.010;2024-01-30T10:30:06;100550.71;;;5.55;100.00
23899;BME280;20544;50.018;20.010;2024-01-30T10:33:25;100550.49;;;5.71;100.00
23899;BME280;20544;50.018;20.010;2024-01-30T10:36:46;100543.63;;;5.81;100.00
23899;BME280;20544;50.018;20.010;2024-01-30T10:40:08;100541.41;;;5.88;100.00
23899;BME280;20544;50.018;20.010;2024-01-30T10:43:30;100532.95;;;6.09;100.00
23899;BME280;20544;50.018;20.010;2024-01-30T10:46:54;100518.95;;;6.08;100.00
23899;BME280;20544;50.018;20.010;2024-01-30T10:50:14;100525.52;;;6.27;100.00
23899;BME280;20544;50.018;20.010;2024-01-30T10:53:35;100518.67;;;6.48;100.00
23899;BME280;20544;50.018;20.010;2024-01-30T10:57:14;100511.66;;;6.60;100.00
23899;BME280;20544;50.018;20.010;2024-01-30T11:00:33;100507.25;;;6.72;100.00
23899;BME280;20544;50.018;20.010;2024-01-30T11:03:51;100504.52;;;6.85;100.00
23899;BME280;20544;50.018;20.010;2024-01-30T11:07:24;100500.35;;;6.94;100.00
23899;BME280;20544;50.018;20.010;2024-01-30T11:10:47;100498.47;;;7.07;100.00
23899;BME280;20544;50.018;20.010;2024-01-30T11:14:07;100506.40;;;7.19;100.00
23899;BME280;20544;50.018;20.010;2024-01-30T11:17:44;100497.66;;;7.18;100.00
23899;BME280;20544;50.018;20.010;2024-01-30T11:21:07;100498.01;;;7.25;100.00
23899;BME280;20544;50.018;20.010;2024-01-30T11:24:29;100496.45;;;7.34;100.00
23899;BME280;20544;50.018;20.010;2024-01-30T11:27:51;100491.69;;;7.50;100.00
23899;BME280;20544;50.018;20.010;2024-01-30T11:31:14;100486.50;;;7.49;100.00
23899;BME280;20544;50.018;20.010;2024-01-30T11:34:36;100483.63;;;7.63;100.00
23899;BME280;20544;50.018;20.010;2024-01-30T11:37:58;100489.23;;;7.81;100.00
23899;BME280;20544;50.018;20.010;2024-01-30T11:41:17;100481.88;;;7.96;100.00
23899;BME280;20544;50.018;20.010;2024-01-30T11:44:36;100482.38;;;8.01;100.00
23899;BME280;20544;50.018;20.010;2024-01-30T11:47:55;100480.89;;;8.08;100.00
23899;BME280;20544;50.018;20.010;2024-01-30T11:51:15;100486.44;;;8.05;100.00
23899;BME280;20544;50.018;20.010;2024-01-30T11:54:33;100482.25;;;8.03;100.00
23899;BME280;20544;50.018;20.010;2024-01-30T11:57:51;100477.95;;;7.90;100.00
23899;BME280;20544;50.018;20.010;2024-01-30T12:01:13;100474.45;;;7.90;100.00
23899;BME280;20544;50.018;20.010;2024-01-30T12:04:31;100472.55;;;7.81;100.00
23899;BME280;20544;50.018;20.010;2024-01-30T12:07:50;100463.54;;;7.83;100.00
23899;BME280;20544;50.018;20.010;2024-01-30T12:11:11;100467.25;;;7.92;100.00
23899;BME280;20544;50.018;20.010;2024-01-30T12:14:29;100468.11;;;7.92;100.00
23899;BME280;20544;50.018;20.010;2024-01-30T12:17:48;100461.37;;;7.88;100.00
23899;BME280;20544;50.018;20.010;2024-01-30T12:21:06;100456.34;;;7.85;100.00
23899;BME280;20544;50.018;20.010;2024-01-30T12:24:24;100448.78;;;7.81;100.00
23899;BME280;20544;50.018;20.010;2024-01-30T12:27:44;100448.31;;;7.75;100.00
23899;BME280;20544;50.018;20.010;2024-01-30T12:31:05;100454.91;;;7.70;100.00
23899;BME280;20544;50.018;20.010;2024-01-30T12:34:23;100448.43;;;7.63;100.00
23899;BME280;20544;50.018;20.010;2024-01-30T12:37:45;100448.69;;;7.59;100.00
23899;BME280;20544;50.018;20.010;2024-01-30T12:41:03;100451.69;;;7.55;100.00
23899;BME280;20544;50.018;20.010;2024-01-30T12:44:23;100443.30;;;7.50;100.00
23899;BME280;20544;50.018;20.010;2024-01-30T12:47:41;100431.53;;;7.42;100.00
23899;BME280;20544;50.018;20.010;2024-01-30T12:50:59;100440.44;;;7.41;100.00
23899;BME280;20544;50.018;20.010;2024-01-30T12:54:19;100429.98;;;7.40;100.00
23899;BME280;20544;50.018;20.010;2024-01-30T12:57:36;100436.34;;;7.37;100.00
23899;BME280;20544;50.018;20.010;2024-01-30T13:00:55;100428.08;;;7.31;100.00
23899;BME280;20544;50.018;20.010;2024-01-30T13:04:29;100430.72;;;7.31;100.00
23899;BME280;20544;50.018;20.010;2024-01-30T13:07:49;100424.01;;;7.26;100.00
23899;BME280;20544;50.018;20.010;2024-01-30T13:11:08;100425.05;;;7.24;100.00
23899;BME280;20544;50.018;20.010;2024-01-30T13:14:27;100420.98;;;7.20;100.00
23899;BME280;20544;50.018;20.010;2024-01-30T13:17:45;100409.00;;;7.16;100.00
23899;BME280;20544;50.018;20.010;2024-01-30T13:21:05;100412.59;;;7.15;100.00
23899;BME280;20544;50.018;20.010;2024-01-30T13:24:22;100418.00;;;7.13;100.00
23899;BME280;20544;50.018;20.010;2024-01-30T13:27:40;100404.20;;;7.09;100.00
23899;BME280;20544;50.018;20.010;2024-01-30T13:31:04;100411.27;;;7.09;100.00
23899;BME280;20544;50.018;20.010;2024-01-30T13:34:24;100409.61;;;7.08;100.00
23899;BME280;20544;50.018;20.010;2024-01-30T13:37:45;100401.69;;;7.08;100.00
23899;BME280;20544;50.018;20.010;2024-01-30T13:41:05;100402.04;;;7.03;100.00
23899;BME280;20544;50.018;20.010;2024-01-30T13:44:22;100402.64;;;7.07;100.00
23899;BME280;20544;50.018;20.010;2024-01-30T13:47:42;100400.00;;;7.07;100.00
23899;BME280;20544;50.018;20.010;2024-01-30T13:51:25;100410.69;;;7.05;100.00
23899;BME280;20544;50.018;20.010;2024-01-30T13:55:29;100405.50;;;7.04;100.00
23899;BME280;20544;50.018;20.010;2024-01-30T13:59:32;100391.36;;;6.93;100.00
23899;BME280;20544;50.018;20.010;2024-01-30T14:03:50;100393.65;;;6.98;100.00
23899;BME280;20544;50.018;20.010;2024-01-30T14:11:46;100393.13;;;6.82;100.00
23899;BME280;20544;50.018;20.010;2024-01-30T14:15:37;100390.63;;;6.80;100.00
23899;BME280;20544;50.018;20.010;2024-01-30T14:19:23;100393.73;;;6.74;100.00
23899;BME280;20544;50.018;20.010;2024-01-30T14:31:04;100381.80;;;6.45;100.00
23899;BME280;20544;50.018;20.010;2024-01-30T14:35:05;100382.17;;;6.41;100.00
23899;BME280;20544;50.018;20.010;2024-01-30T14:38:57;100372.91;;;6.35;100.00
23899;BME280;20544;50.018;20.010;2024-01-30T14:42:39;100373.01;;;6.22;100.00
23899;BME280;20544;50.018;20.010;2024-01-30T14:46:13;100377.75;;;6.06;100.00
23899;BME280;20544;50.018;20.010;2024-01-30T14:49:38;100371.00;;;6.02;100.00
23899;BME280;20544;50.018;20.010;2024-01-30T14:53:23;100363.14;;;5.89;100.00
23899;BME280;20544;50.018;20.010;2024-01-30T14:57:15;100359.52;;;5.78;100.00
23899;BME280;20544;50.018;20.010;2024-01-30T15:01:07;100368.33;;;5.53;100.00
23899;BME280;20544;50.018;20.010;2024-01-30T15:05:03;100362.61;;;5.35;100.00
23899;BME280;20544;50.018;20.010;2024-01-30T15:08:38;100369.69;;;5.22;100.00
23899;BME280;20544;50.018;20.010;2024-01-30T15:12:14;100361.83;;;5.09;100.00
23899;BME280;20544;50.018;20.010;2024-01-30T15:15:52;100369.83;;;4.94;100.00
23899;BME280;20544;50.018;20.010;2024-01-30T15:19:34;100364.16;;;4.75;100.00
23899;BME280;20544;50.018;20.010;2024-01-30T15:23:03;100362.28;;;4.64;100.00
23899;BME280;20544;50.018;20.010;2024-01-30T15:26:32;100367.32;;;4.54;100.00
23899;BME280;20544;50.018;20.010;2024-01-30T15:30:15;100367.52;;;4.38;100.00
23899;BME280;20544;50.018;20.010;2024-01-30T15:33:47;100369.27;;;4.25;100.00
23899;BME280;20544;50.018;20.010;2024-01-30T15:37:15;100370.01;;;4.14;100.00
23899;BME280;20544;50.018;20.010;2024-01-30T15:40:43;100362.83;;;4.03;100.00
23899;BME280;20544;50.018;20.010;2024-01-30T15:44:18;100361.54;;;3.96;100.00
23899;BME280;20544;50.018;20.010;2024-01-30T15:47:48;100346.94;;;3.92;100.00
23899;BME280;20544;50.018;20.010;2024-01-30T15:51:20;100346.45;;;3.72;100.00
23899;BME280;20544;50.018;20.010;2024-01-30T15:54:48;100355.22;;;3.58;100.00
23899;BME280;20544;50.018;20.010;2024-01-30T15:58:27;100346.72;;;3.40;100.00
23899;BME280;20544;50.018;20.010;2024-01-30T16:01:56;100347.31;;;3.31;100.00
23899;BME280;20544;50.018;20.010;2024-01-30T16:05:34;100337.98;;;3.12;100.00
23899;BME280;20544;50.018;20.010;2024-01-30T16:08:57;100346.23;;;3.06;100.00
23899;BME280;20544;50.018;20.010;2024-01-30T16:12:20;100337.91;;;2.99;100.00
23899;BME280;20544;50.018;20.010;2024-01-30T16:15:38;100332.11;;;2.94;100.00
23899;BME280;20544;50.018;20.010;2024-01-30T16:19:00;100334.73;;;2.94;100.00
23899;BME280;20544;50.018;20.010;2024-01-30T16:22:25;100333.70;;;2.82;100.00
23899;BME280;20544;50.018;20.010;2024-01-30T16:25:43;100327.14;;;2.75;100.00
23899;BME280;20544;50.018;20.010;2024-01-30T16:29:01;100331.53;;;2.60;100.00
23899;BME280;20544;50.018;20.010;2024-01-30T16:32:19;100328.35;;;2.55;100.00
23899;BME280;20544;50.018;20.010;2024-01-30T16:35:39;100323.95;;;2.41;100.00
23899;BME280;20544;50.018;20.010;2024-01-30T16:38:59;100320.27;;;2.29;100.00
23899;BME280;20544;50.018;20.010;2024-01-30T16:42:24;100326.53;;;2.26;100.00
23899;BME280;20544;50.018;20.010;2024-01-30T16:45:47;100328.78;;;2.33;100.00
23899;BME280;20544;50.018;20.010;2024-01-30T16:49:14;100329.65;;;2.33;100.00
23899;BME280;20544;50.018;20.010;2024-01-30T16:52:35;100327.45;;;2.25;100.00
23899;BME280;20544;50.018;20.010;2024-01-30T16:55:53;100333.34;;;2.15;100.00
23899;BME280;20544;50.018;20.010;2024-01-30T16:59:11;100319.28;;;2.01;100.00
23899;BME280;20544;50.018;20.010;2024-01-30T17:03:00;100317.69;;;1.99;100.00
23899;BME280;20544;50.018;20.010;2024-01-30T17:06:36;100316.55;;;1.88;100.00
23899;BME280;20544;50.018;20.010;2024-01-30T17:10:07;100322.86;;;1.84;100.00
23899;BME280;20544;50.018;20.010;2024-01-30T17:13:27;100316.80;;;1.84;100.00
23899;BME280;20544;50.018;20.010;2024-01-30T17:16:45;100317.15;;;1.77;100.00
23899;BME280;20544;50.018;20.010;2024-01-30T17:20:08;100315.11;;;1.83;100.00
23899;BME280;20544;50.018;20.010;2024-01-30T17:23:26;100311.91;;;1.77;100.00
23899;BME280;20544;50.018;20.010;2024-01-30T17:26:44;100304.67;;;1.67;100.00